Time;durP1;ratioP1;P1;durP2;ratioP2;P2;SDS_P1;SDS_P2;PMS_P1;PMS_P2;Temp;Humidity;BMP_temperature;BMP_pressure;BME280_temperature;BME280_humidity;BME280_pressure;Samples;Min_cycle;Max_cycle;Signal;HPM_P1;HPM_P2
2022/06/17 00:01:05;;;;;;;8.70;5.60;;;;;;;;;;1821200;78;21032;-68
2022/06/17 00:03:31;;;;;;;9.83;5.75;;;;;;;;;;1817973;79;21083;-67
2022/06/17 00:05:59;;;;;;;10.95;5.53;;;;;;;;;;1813834;79;21040;-68
2022/06/17 00:08:26;;;;;;;9.68;5.45;;;;;;;;;;1795617;79;21539;-68
2022/06/17 00:10:53;;;;;;;9.58;5.65;;;;;;;;;;1817790;79;21017;-68
2022/06/17 00:13:19;;;;;;;11.00;5.62;;;;;;;;;;1817869;79;21544;-68
2022/06/17 00:15:45;;;;;;;8.13;5.67;;;;;;;;;;1817849;79;21059;-68
2022/06/17 00:18:12;;;;;;;8.20;5.17;;;;;;;;;;1823351;78;20991;-68
2022/06/17 00:20:38;;;;;;;8.55;5.08;;;;;;;;;;1819225;79;20988;-68
2022/06/17 00:23:05;;;;;;;8.20;5.15;;;;;;;;;;1817942;79;21056;-67
2022/06/17 00:25:34;;;;;;;13.32;5.97;;;;;;;;;;1817521;79;20993;-67
2022/06/17 00:28:00;;;;;;;8.90;5.70;;;;;;;;;;1817327;79;21556;-68
2022/06/17 00:30:27;;;;;;;7.92;4.97;;;;;;;;;;1820614;79;20959;-67
2022/06/17 00:32:54;;;;;;;10.18;5.50;;;;;;;;;;1819268;79;20997;-68
2022/06/17 00:35:20;;;;;;;8.23;5.80;;;;;;;;;;1817784;79;21571;-67
2022/06/17 00:37:46;;;;;;;10.65;5.67;;;;;;;;;;1818092;79;21028;-67
2022/06/17 00:40:17;;;;;;;7.85;5.50;;;;;;;;;;1819409;79;21031;-67
2022/06/17 00:42:45;;;;;;;10.13;5.97;;;;;;;;;;1824037;79;21567;-68
2022/06/17 00:45:31;;;;;;;10.53;5.72;;;;;;;;;;1823925;79;21555;-68
2022/06/17 00:47:59;;;;;;;8.63;5.47;;;;;;;;;;1823314;79;20992;-67
2022/06/17 00:50:30;;;;;;;9.30;6.08;;;;;;;;;;1821205;79;21024;-68
2022/06/17 00:53:03;;;;;;;9.88;6.22;;;;;;;;;;1821208;79;21448;-67
2022/06/17 00:55:32;;;;;;;7.08;5.50;;;;;;;;;;1805085;79;21664;-68
2022/06/17 00:57:59;;;;;;;10.63;6.30;;;;;;;;;;1814124;79;21012;-67
2022/06/17 01:00:26;;;;;;;9.25;6.08;;;;;;;;;;1818566;79;21567;-67
2022/06/17 01:05:49;;;;;;;10.70;6.67;;;;;;;;;;1682767;84;21657;-67
2022/06/17 01:09:56;;;;;;;8.18;5.90;;;;;;;;;;1671620;86;21059;-68
2022/06/17 01:10:49;;;;;;;11.30;6.47;;;;;;;;;;1664963;86;21039;-68
2022/06/17 01:13:16;;;;;;;12.50;6.92;;;;;;;;;;1672449;86;21156;-67
2022/06/17 01:15:44;;;;;;;11.43;6.42;;;;;;;;;;1672168;86;21579;-68
2022/06/17 01:18:10;;;;;;;10.13;6.40;;;;;;;;;;1672610;86;21052;-68
2022/06/17 01:20:37;;;;;;;10.93;6.45;;;;;;;;;;1671576;84;21127;-67
2022/06/17 01:23:05;;;;;;;10.35;6.55;;;;;;;;;;1671691;86;21090;-66
2022/06/17 01:25:35;;;;;;;8.95;6.08;;;;;;;;;;1671278;86;21025;-67
2022/06/17 01:28:03;;;;;;;14.78;6.53;;;;;;;;;;1671124;86;21589;-67
2022/06/17 01:33:15;;;;;;;10.38;5.87;;;;;;;;;;1735362;79;21079;-67
2022/06/17 01:35:43;;;;;;;14.83;6.78;;;;;;;;;;1712866;82;21011;-67
2022/06/17 01:38:09;;;;;;;9.45;6.25;;;;;;;;;;1715527;82;21055;-67
2022/06/17 01:40:35;;;;;;;11.83;6.15;;;;;;;;;;1731657;82;21004;-67
2022/06/17 01:43:03;;;;;;;9.80;6.67;;;;;;;;;;1741419;82;21016;-67
2022/06/17 01:45:31;;;;;;;14.68;6.80;;;;;;;;;;1742437;82;21110;-67
2022/06/17 01:47:58;;;;;;;10.03;7.17;;;;;;;;;;1742313;82;21060;-68
2022/06/17 01:50:29;;;;;;;13.00;6.85;;;;;;;;;;1742518;82;21040;-67
2022/06/17 01:52:55;;;;;;;11.97;7.47;;;;;;;;;;1723930;82;21018;-67
2022/06/17 01:55:29;;;;;;;13.22;7.80;;;;;;;;;;1714803;83;21001;-67
2022/06/17 01:57:56;;;;;;;12.85;8.58;;;;;;;;;;1746100;81;21007;-67
2022/06/17 02:00:25;;;;;;;13.48;7.80;;;;;;;;;;1759999;81;21003;-67
2022/06/17 02:02:53;;;;;;;13.50;7.53;;;;;;;;;;1759612;81;21586;-67
2022/06/17 02:05:20;;;;;;;13.25;6.78;;;;;;;;;;1759043;81;21535;-67
2022/06/17 02:07:54;;;;;;;11.80;6.65;;;;;;;;;;1759716;81;21003;-67
2022/06/17 02:10:21;;;;;;;11.18;7.80;;;;;;;;;;1758428;81;21024;-68
2022/06/17 02:12:48;;;;;;;14.15;7.60;;;;;;;;;;1759672;81;20977;-68
2022/06/17 02:15:15;;;;;;;13.00;7.58;;;;;;;;;;1760075;81;21528;-67
2022/06/17 02:17:44;;;;;;;13.65;7.75;;;;;;;;;;1759869;81;21028;-68
2022/06/17 02:20:28;;;;;;;11.78;7.12;;;;;;;;;;1734173;81;21095;-68
2022/06/17 02:22:55;;;;;;;12.60;6.92;;;;;;;;;;1759085;81;21068;-68
2022/06/17 02:25:25;;;;;;;9.80;6.90;;;;;;;;;;1760005;81;21511;-67
2022/06/17 02:27:52;;;;;;;12.00;7.37;;;;;;;;;;1759951;81;21039;-67
2022/06/17 02:30:20;;;;;;;11.83;6.97;;;;;;;;;;1760081;81;21067;-67
2022/06/17 02:32:47;;;;;;;11.75;6.92;;;;;;;;;;1718084;81;21084;-68
2022/06/17 02:35:21;;;;;;;14.35;6.62;;;;;;;;;;1711511;84;21044;-68
2022/06/17 02:37:47;;;;;;;10.63;6.97;;;;;;;;;;1710668;82;21060;-67
2022/06/17 02:40:27;;;;;;;14.55;7.10;;;;;;;;;;1711357;84;20997;-67
2022/06/17 02:42:53;;;;;;;13.13;7.25;;;;;;;;;;1710974;83;21091;-67
2022/06/17 02:45:22;;;;;;;9.48;6.10;;;;;;;;;;1711486;84;21048;-67
2022/06/17 02:47:49;;;;;;;9.78;6.10;;;;;;;;;;1711046;84;21108;-67
2022/06/17 02:50:17;;;;;;;8.03;6.03;;;;;;;;;;1711453;84;21005;-67
2022/06/17 02:52:43;;;;;;;10.05;6.85;;;;;;;;;;1711282;84;21515;-68
2022/06/17 02:55:13;;;;;;;9.43;6.35;;;;;;;;;;1707066;84;21003;-68
2022/06/17 02:57:40;;;;;;;10.23;6.60;;;;;;;;;;1703025;84;21065;-68
2022/06/17 03:00:14;;;;;;;13.70;6.12;;;;;;;;;;1711566;84;21040;-67
2022/06/17 03:02:45;;;;;;;10.63;6.85;;;;;;;;;;1693141;84;21092;-67
2022/06/17 03:05:15;;;;;;;13.88;8.58;;;;;;;;;;1711633;84;21069;-67
2022/06/17 03:07:42;;;;;;;12.55;7.25;;;;;;;;;;1711404;84;21035;-68
2022/06/17 03:10:11;;;;;;;14.03;7.60;;;;;;;;;;1687467;84;21521;-68
2022/06/17 03:12:39;;;;;;;12.63;7.60;;;;;;;;;;1710855;83;21061;-67
2022/06/17 03:15:06;;;;;;;11.30;7.70;;;;;;;;;;1711611;82;20993;-68
2022/06/17 03:17:36;;;;;;;13.00;8.03;;;;;;;;;;1710935;84;21076;-68
2022/06/17 03:20:04;;;;;;;13.28;8.15;;;;;;;;;;1711551;84;21025;-67
2022/06/17 03:22:30;;;;;;;13.38;8.85;;;;;;;;;;1711360;84;21539;-67
2022/06/17 03:24:59;;;;;;;12.82;9.28;;;;;;;;;;1711251;84;21127;-67
2022/06/17 03:27:27;;;;;;;10.60;7.97;;;;;;;;;;1711568;82;21033;-68
2022/06/17 03:29:55;;;;;;;12.05;7.22;;;;;;;;;;1711121;84;21076;-68
2022/06/17 03:32:23;;;;;;;11.38;7.58;;;;;;;;;;1711117;82;21088;-67
2022/06/17 03:34:50;;;;;;;12.05;7.58;;;;;;;;;;1710286;84;21492;-68
2022/06/17 03:37:23;;;;;;;10.72;7.17;;;;;;;;;;1711084;83;21060;-67
2022/06/17 03:39:51;;;;;;;11.95;8.35;;;;;;;;;;1710996;84;21565;-68
2022/06/17 03:42:20;;;;;;;17.00;11.20;;;;;;;;;;1724021;83;21043;-67
2022/06/17 03:44:55;;;;;;;16.67;9.15;;;;;;;;;;1703849;82;22287;-68
2022/06/17 03:47:24;;;;;;;13.00;7.97;;;;;;;;;;1708369;83;21530;-68
2022/06/17 03:49:52;;;;;;;10.65;6.47;;;;;;;;;;1724163;82;21040;-68
2022/06/17 03:52:21;;;;;;;10.43;6.15;;;;;;;;;;1723829;83;21102;-68
2022/06/17 03:54:48;;;;;;;9.25;5.40;;;;;;;;;;1701102;83;21059;-67
2022/06/17 03:57:14;;;;;;;8.65;5.30;;;;;;;;;;1724111;83;21052;-67
2022/06/17 03:59:41;;;;;;;5.97;4.58;;;;;;;;;;1723562;83;21581;-68
2022/06/17 04:02:21;;;;;;;6.45;3.75;;;;;;;;;;1724087;83;20994;-68
2022/06/17 04:04:39;;;;;;;5.87;4.22;;;;;;;;;;1719946;83;21085;-68
2022/06/17 04:07:05;;;;;;;6.87;4.42;;;;;;;;;;1724089;83;21056;-67
2022/06/17 04:09:37;;;;;;;7.28;4.47;;;;;;;;;;1689043;84;21632;-67
2022/06/17 04:12:04;;;;;;;7.33;5.08;;;;;;;;;;1689304;85;21088;-67
2022/06/17 04:14:36;;;;;;;11.08;6.70;;;;;;;;;;1711317;84;21009;-68
2022/06/17 04:17:12;;;;;;;11.18;6.22;;;;;;;;;;1711483;84;21032;-67
2022/06/17 04:19:42;;;;;;;11.50;6.30;;;;;;;;;;1710881;83;21107;-67
2022/06/17 04:22:25;;;;;;;11.70;6.47;;;;;;;;;;1711278;84;21017;-67
2022/06/17 04:25:09;;;;;;;12.15;6.78;;;;;;;;;;1689058;83;21057;-67
2022/06/17 04:27:56;;;;;;;10.28;5.67;;;;;;;;;;1704130;83;21084;-67
2022/06/17 04:30:24;;;;;;;64.70;11.22;;;;;;;;;;1711338;82;21012;-66
2022/06/17 04:32:53;;;;;;;14.70;5.50;;;;;;;;;;1711312;82;21520;-66
2022/06/17 04:35:18;;;;;;;11.78;6.10;;;;;;;;;;1687634;85;21005;-66
2022/06/17 04:37:46;;;;;;;11.85;6.75;;;;;;;;;;1688955;84;21036;-67
2022/06/17 04:40:16;;;;;;;15.80;8.05;;;;;;;;;;1693504;85;21028;-66
2022/06/17 04:42:47;;;;;;;9.90;5.80;;;;;;;;;;1709293;83;21020;-67
2022/06/17 04:45:16;;;;;;;11.28;5.53;;;;;;;;;;1711951;83;21017;-66
2022/06/17 04:47:43;;;;;;;12.55;5.58;;;;;;;;;;1709560;83;21029;-67
2022/06/17 04:50:13;;;;;;;10.25;5.50;;;;;;;;;;1709315;83;22186;-67
2022/06/17 04:52:41;;;;;;;10.88;5.72;;;;;;;;;;1709725;83;21020;-67
2022/06/17 04:55:20;;;;;;;11.10;5.85;;;;;;;;;;1708810;84;20992;-68
2022/06/17 04:57:55;;;;;;;16.67;5.60;;;;;;;;;;1707737;83;21063;-67
2022/06/17 05:00:23;;;;;;;8.55;5.00;;;;;;;;;;1708398;84;21008;-67
2022/06/17 05:02:50;;;;;;;8.73;5.35;;;;;;;;;;1710981;83;21003;-68
2022/06/17 05:05:39;;;;;;;7.17;4.87;;;;;;;;;;1710764;83;21559;-68
2022/06/17 05:08:10;;;;;;;11.20;5.08;;;;;;;;;;1688532;84;21596;-68
2022/06/17 05:10:39;;;;;;;7.20;4.78;;;;;;;;;;1694236;85;21048;-68
2022/06/17 05:13:13;;;;;;;9.98;4.17;;;;;;;;;;1669836;86;21085;-68
2022/06/17 05:15:42;;;;;;;6.47;4.20;;;;;;;;;;1668647;86;21568;-67
2022/06/17 05:18:09;;;;;;;10.48;5.00;;;;;;;;;;1675701;84;21532;-67
2022/06/17 05:20:36;;;;;;;12.82;3.95;;;;;;;;;;1689596;85;21056;-67
2022/06/17 05:23:03;;;;;;;24.32;5.00;;;;;;;;;;1723899;83;21128;-67
2022/06/17 05:25:34;;;;;;;5.90;4.47;;;;;;;;;;1724101;83;21008;-66
2022/06/17 05:28:01;;;;;;;8.03;5.12;;;;;;;;;;1723948;83;21057;-66
2022/06/17 05:30:29;;;;;;;6.55;3.67;;;;;;;;;;1724960;82;21127;-67
2022/06/17 05:32:55;;;;;;;29.52;5.37;;;;;;;;;;1722881;83;21069;-67
2022/06/17 05:35:26;;;;;;;7.55;3.90;;;;;;;;;;1721141;83;21032;-66
2022/06/17 05:37:53;;;;;;;5.60;3.10;;;;;;;;;;1720949;82;21043;-67
2022/06/17 05:40:19;;;;;;;5.65;2.72;;;;;;;;;;1721358;82;21142;-68
2022/06/17 05:42:47;;;;;;;4.03;2.33;;;;;;;;;;1721173;82;20964;-68
2022/06/17 05:45:16;;;;;;;5.45;2.60;;;;;;;;;;1736097;82;21065;-68
2022/06/17 05:48:00;;;;;;;13.48;2.87;;;;;;;;;;1719931;82;21080;-68
2022/06/17 05:50:30;;;;;;;4.53;2.60;;;;;;;;;;1719916;83;21088;-68
2022/06/17 05:53:08;;;;;;;5.97;2.80;;;;;;;;;;1674545;85;21041;-68
2022/06/17 05:55:51;;;;;;;3.50;2.55;;;;;;;;;;1600098;88;21064;-69
2022/06/17 05:58:17;;;;;;;3.30;2.30;;;;;;;;;;1665508;85;21315;-69
2022/06/17 06:00:43;;;;;;;5.12;2.33;;;;;;;;;;1672193;85;21099;-68
2022/06/17 06:03:11;;;;;;;4.22;2.80;;;;;;;;;;1657944;85;21034;-68
2022/06/17 06:05:38;;;;;;;3.35;2.20;;;;;;;;;;1666547;85;21563;-67
2022/06/17 06:08:07;;;;;;;3.65;2.40;;;;;;;;;;1684027;84;21073;-67
2022/06/17 06:10:33;;;;;;;4.97;2.45;;;;;;;;;;1658490;85;21041;-67
2022/06/17 06:13:05;;;;;;;4.67;2.70;;;;;;;;;;1684229;85;21037;-68
2022/06/17 06:15:36;;;;;;;5.47;2.50;;;;;;;;;;1683357;85;21052;-68
2022/06/17 06:18:14;;;;;;;4.62;2.65;;;;;;;;;;1682968;85;21054;-67
2022/06/17 06:20:42;;;;;;;6.15;2.60;;;;;;;;;;1682484;85;21562;-68
2022/06/17 06:23:08;;;;;;;4.42;2.83;;;;;;;;;;1684445;85;21056;-67
2022/06/17 06:25:34;;;;;;;4.47;2.58;;;;;;;;;;1683441;85;21098;-68
2022/06/17 06:28:08;;;;;;;6.95;2.80;;;;;;;;;;1682830;85;21073;-68
2022/06/17 06:30:35;;;;;;;6.17;2.95;;;;;;;;;;1683279;85;21092;-68
2022/06/17 06:33:01;;;;;;;7.33;3.05;;;;;;;;;;1685907;85;21096;-68
2022/06/17 06:35:29;;;;;;;6.67;2.90;;;;;;;;;;1689510;85;21021;-68
2022/06/17 06:37:56;;;;;;;5.35;2.70;;;;;;;;;;1688473;84;21564;-67
2022/06/17 06:40:23;;;;;;;6.33;2.60;;;;;;;;;;1723642;83;21107;-68
2022/06/17 06:42:50;;;;;;;6.87;2.98;;;;;;;;;;1722874;82;21036;-67
2022/06/17 06:45:35;;;;;;;4.37;2.40;;;;;;;;;;1719149;83;21071;-67
2022/06/17 06:48:03;;;;;;;4.50;2.40;;;;;;;;;;1741282;81;21026;-67
2022/06/17 06:50:30;;;;;;;14.13;3.10;;;;;;;;;;1733559;82;21056;-68
2022/06/17 06:52:56;;;;;;;5.08;2.80;;;;;;;;;;1721588;83;21072;-68
2022/06/17 06:55:22;;;;;;;7.53;6.05;;;;;;;;;;1721854;82;21603;-67
2022/06/17 06:57:51;;;;;;;5.20;3.90;;;;;;;;;;1721732;82;21547;-68
2022/06/17 07:00:19;;;;;;;3.22;2.50;;;;;;;;;;1722607;83;21064;-67
2022/06/17 07:02:45;;;;;;;3.52;2.30;;;;;;;;;;1702994;83;21473;-67
2022/06/17 07:05:11;;;;;;;6.95;2.50;;;;;;;;;;1722151;82;21057;-68
2022/06/17 07:07:38;;;;;;;2.80;1.90;;;;;;;;;;1699100;83;21326;-67
2022/06/17 07:10:04;;;;;;;5.47;2.27;;;;;;;;;;1723949;83;21024;-67
2022/06/17 07:12:31;;;;;;;3.77;2.05;;;;;;;;;;1725600;83;20999;-67
2022/06/17 07:14:57;;;;;;;2.87;2.08;;;;;;;;;;1687107;85;21008;-68
2022/06/17 07:17:24;;;;;;;3.17;2.00;;;;;;;;;;1723972;83;21068;-67
2022/06/17 07:19:50;;;;;;;3.05;2.12;;;;;;;;;;1722758;82;21086;-68
2022/06/17 07:22:16;;;;;;;3.90;1.90;;;;;;;;;;1723411;81;21574;-67
2022/06/17 07:24:43;;;;;;;2.70;1.90;;;;;;;;;;1722926;81;21056;-67
2022/06/17 07:27:09;;;;;;;4.45;2.10;;;;;;;;;;1723410;82;21038;-68
2022/06/17 07:29:34;;;;;;;2.58;2.00;;;;;;;;;;1720518;82;21022;-68
2022/06/17 07:32:00;;;;;;;3.25;1.90;;;;;;;;;;1735333;81;21552;-68
2022/06/17 07:34:27;;;;;;;3.55;2.00;;;;;;;;;;1726819;81;21056;-68
2022/06/17 07:39:56;;;;;;;3.55;2.22;;;;;;;;;;1721879;82;21025;-67
2022/06/17 07:42:23;;;;;;;2.80;1.80;;;;;;;;;;1720208;82;21039;-66
2022/06/17 07:44:49;;;;;;;4.05;2.30;;;;;;;;;;1722330;83;21477;-66
2022/06/17 07:47:17;;;;;;;4.30;1.82;;;;;;;;;;1721824;82;21040;-67
2022/06/17 07:49:42;;;;;;;4.35;1.90;;;;;;;;;;1721432;82;21007;-68
2022/06/17 07:52:09;;;;;;;3.80;1.90;;;;;;;;;;1722954;83;21571;-68
2022/06/17 07:54:35;;;;;;;3.67;2.02;;;;;;;;;;1696744;83;21017;-66
2022/06/17 07:57:04;;;;;;;3.17;1.80;;;;;;;;;;1724067;83;21135;-68
2022/06/17 07:59:30;;;;;;;3.85;2.17;;;;;;;;;;1689167;85;20989;-67
2022/06/17 08:01:56;;;;;;;2.45;1.90;;;;;;;;;;1722183;82;21033;-66
2022/06/17 08:04:23;;;;;;;2.98;2.00;;;;;;;;;;1729317;82;21099;-67
2022/06/17 08:06:50;;;;;;;2.25;1.87;;;;;;;;;;1724196;83;21092;-67
2022/06/17 08:09:18;;;;;;;3.72;2.27;;;;;;;;;;1686895;84;21865;-65
2022/06/17 08:11:47;;;;;;;4.87;1.95;;;;;;;;;;1657512;85;21079;-66
2022/06/17 08:14:14;;;;;;;5.78;2.50;;;;;;;;;;1712596;82;21067;-66
2022/06/17 08:16:42;;;;;;;10.78;7.62;;;;;;;;;;1722554;82;21601;-67
2022/06/17 08:19:09;;;;;;;9.98;7.05;;;;;;;;;;1723420;83;21085;-68
2022/06/17 08:21:36;;;;;;;12.68;9.20;;;;;;;;;;1688331;84;21575;-66
2022/06/17 08:24:03;;;;;;;9.78;7.58;;;;;;;;;;1688638;84;21021;-68
2022/06/17 08:26:30;;;;;;;15.40;11.95;;;;;;;;;;1689536;85;21084;-67
2022/06/17 08:28:56;;;;;;;6.15;4.87;;;;;;;;;;1723794;83;21051;-64
2022/06/17 08:31:24;;;;;;;3.52;2.20;;;;;;;;;;1723322;82;21567;-65
2022/06/17 08:33:50;;;;;;;2.22;1.87;;;;;;;;;;1721333;81;21002;-66
2022/06/17 08:36:17;;;;;;;2.52;1.70;;;;;;;;;;1721559;83;21550;-65
2022/06/17 08:38:45;;;;;;;3.37;1.90;;;;;;;;;;1722482;83;21042;-66
2022/06/17 08:42:57;;;;;;;3.77;1.80;;;;;;;;;;1795880;79;22869;-65
2022/06/17 08:45:28;;;;;;;2.83;1.80;;;;;;;;;;1760327;81;21103;-64
2022/06/17 08:47:57;;;;;;;4.12;2.00;;;;;;;;;;1756884;81;21092;-65
2022/06/17 08:50:25;;;;;;;2.72;1.90;;;;;;;;;;1745639;80;21052;-65
2022/06/17 08:53:05;;;;;;;3.35;2.05;;;;;;;;;;1755320;82;21075;-65
2022/06/17 08:55:40;;;;;;;4.35;2.05;;;;;;;;;;1759811;81;21005;-64
2022/06/17 08:58:08;;;;;;;2.75;2.08;;;;;;;;;;1756508;81;21028;-64
2022/06/17 09:00:36;;;;;;;4.12;1.80;;;;;;;;;;1761185;80;21040;-64
2022/06/17 09:03:07;;;;;;;2.45;1.77;;;;;;;;;;1758519;81;20984;-65
2022/06/17 09:05:44;;;;;;;6.62;2.20;;;;;;;;;;1758026;81;21051;-65
2022/06/17 09:08:19;;;;;;;3.05;1.98;;;;;;;;;;1755849;80;21051;-64
2022/06/17 09:10:50;;;;;;;3.08;1.90;;;;;;;;;;1759035;81;21067;-63
2022/06/17 09:13:27;;;;;;;12.05;3.58;;;;;;;;;;1760633;81;21068;-63
2022/06/17 09:16:02;;;;;;;4.03;2.10;;;;;;;;;;1752975;81;21370;-64
2022/06/17 09:18:36;;;;;;;3.15;1.82;;;;;;;;;;1757192;80;21079;-63
2022/06/17 09:21:18;;;;;;;3.42;1.87;;;;;;;;;;1758565;80;21088;-64
2022/06/17 09:23:44;;;;;;;4.40;1.98;;;;;;;;;;1755797;80;21562;-64
2022/06/17 09:26:12;;;;;;;4.10;1.90;;;;;;;;;;1760191;81;21309;-64
2022/06/17 09:28:46;;;;;;;3.45;2.33;;;;;;;;;;1754985;81;21064;-64
2022/06/17 09:31:32;;;;;;;2.80;1.95;;;;;;;;;;1731656;81;21603;-64
2022/06/17 09:34:01;;;;;;;3.80;1.87;;;;;;;;;;1723355;82;21102;-65
2022/06/17 09:36:30;;;;;;;2.35;1.80;;;;;;;;;;1724686;83;21099;-65
2022/06/17 09:38:58;;;;;;;3.62;2.05;;;;;;;;;;1727519;82;21059;-64
2022/06/17 09:41:29;;;;;;;2.72;1.95;;;;;;;;;;1724886;82;21548;-64
2022/06/17 09:43:57;;;;;;;4.60;2.00;;;;;;;;;;1721222;82;21064;-64
2022/06/17 09:46:32;;;;;;;2.15;1.95;;;;;;;;;;1720278;82;21087;-68
2022/06/17 09:49:00;;;;;;;2.92;2.08;;;;;;;;;;1721658;83;21051;-66
2022/06/17 09:51:28;;;;;;;4.78;3.37;;;;;;;;;;1723547;83;21032;-65
2022/06/17 09:54:00;;;;;;;2.95;2.37;;;;;;;;;;1723141;83;21048;-64
2022/06/17 09:56:31;;;;;;;3.98;2.00;;;;;;;;;;1723763;83;21028;-64
2022/06/17 09:58:59;;;;;;;3.42;2.00;;;;;;;;;;1688537;85;21041;-63
2022/06/17 10:01:26;;;;;;;6.75;2.27;;;;;;;;;;1698787;83;21084;-64
2022/06/17 10:03:52;;;;;;;4.37;2.10;;;;;;;;;;1691406;85;21611;-64
2022/06/17 10:06:36;;;;;;;3.05;1.92;;;;;;;;;;1660117;85;21089;-65
2022/06/17 10:09:14;;;;;;;2.95;1.98;;;;;;;;;;1683620;85;21049;-64
2022/06/17 10:11:43;;;;;;;13.32;2.70;;;;;;;;;;1657445;85;21636;-65
2022/06/17 10:14:14;;;;;;;2.47;1.98;;;;;;;;;;1654904;86;22046;-64
2022/06/17 10:19:35;;;;;;;5.90;2.15;;;;;;;;;;1641010;86;21573;-64
2022/06/17 10:22:12;;;;;;;2.45;1.80;;;;;;;;;;1686465;85;21107;-65
2022/06/17 10:24:40;;;;;;;10.48;2.60;;;;;;;;;;1693336;83;21096;-66
2022/06/17 10:27:08;;;;;;;2.45;1.85;;;;;;;;;;1702549;83;21077;-64
2022/06/17 10:29:43;;;;;;;3.62;2.00;;;;;;;;;;1693918;83;21052;-65
2022/06/17 10:32:09;;;;;;;3.22;2.00;;;;;;;;;;1688844;85;21053;-64
2022/06/17 10:34:44;;;;;;;3.47;2.00;;;;;;;;;;1687269;85;21056;-64
2022/06/17 10:37:11;;;;;;;4.12;2.00;;;;;;;;;;1688232;85;22096;-65
2022/06/17 10:39:39;;;;;;;2.67;1.90;;;;;;;;;;1686774;84;21136;-65
2022/06/17 10:42:05;;;;;;;2.42;2.00;;;;;;;;;;1686783;85;21108;-64
2022/06/17 10:44:33;;;;;;;2.83;2.27;;;;;;;;;;1689965;85;21499;-65
2022/06/17 10:47:02;;;;;;;4.35;2.60;;;;;;;;;;1686686;85;21017;-64
2022/06/17 10:49:30;;;;;;;2.87;1.70;;;;;;;;;;1689708;85;21062;-65
2022/06/17 10:51:57;;;;;;;4.65;1.95;;;;;;;;;;1691806;83;21073;-65
2022/06/17 10:54:24;;;;;;;2.52;1.87;;;;;;;;;;1689021;85;21098;-64
2022/06/17 10:57:10;;;;;;;2.87;1.90;;;;;;;;;;1688956;85;20994;-64
2022/06/17 10:59:41;;;;;;;2.65;1.82;;;;;;;;;;1688831;85;21025;-65
2022/06/17 11:02:24;;;;;;;2.22;1.90;;;;;;;;;;1687058;85;20982;-65
2022/06/17 11:04:52;;;;;;;2.17;1.87;;;;;;;;;;1688241;85;21104;-66
2022/06/17 11:07:20;;;;;;;2.85;2.00;;;;;;;;;;1683475;85;21076;-67
2022/06/17 11:09:48;;;;;;;3.47;1.77;;;;;;;;;;1688188;83;21021;-66
2022/06/17 11:12:16;;;;;;;3.52;2.10;;;;;;;;;;1690666;83;21093;-66
2022/06/17 11:14:48;;;;;;;2.45;1.90;;;;;;;;;;1677207;85;21030;-67
2022/06/17 11:17:24;;;;;;;3.08;2.12;;;;;;;;;;1675277;85;21057;-64
2022/06/17 11:19:52;;;;;;;2.80;2.00;;;;;;;;;;1685781;85;21049;-65
2022/06/17 11:22:20;;;;;;;3.10;1.90;;;;;;;;;;1689645;85;21064;-65
2022/06/17 11:24:47;;;;;;;2.47;1.82;;;;;;;;;;1686403;83;21047;-65
2022/06/17 11:27:17;;;;;;;3.65;1.90;;;;;;;;;;1688186;85;21059;-65
2022/06/17 11:29:45;;;;;;;14.10;2.80;;;;;;;;;;1687358;85;21176;-65
2022/06/17 11:32:22;;;;;;;8.50;2.90;;;;;;;;;;1688919;85;21096;-65
2022/06/17 11:34:56;;;;;;;5.70;2.77;;;;;;;;;;1689717;83;21061;-65
2022/06/17 11:37:30;;;;;;;4.03;2.47;;;;;;;;;;1672141;85;21642;-66
2022/06/17 11:40:16;;;;;;;3.25;2.45;;;;;;;;;;1687004;83;21061;-65
2022/06/17 11:42:42;;;;;;;4.95;2.52;;;;;;;;;;1652930;86;21106;-65
2022/06/17 11:45:10;;;;;;;6.22;2.90;;;;;;;;;;1712115;82;20981;-65
2022/06/17 11:47:37;;;;;;;4.40;2.80;;;;;;;;;;1710491;83;21045;-67
2022/06/17 11:50:13;;;;;;;4.28;2.72;;;;;;;;;;1708001;83;21033;-66
2022/06/17 11:52:40;;;;;;;5.00;2.90;;;;;;;;;;1710524;82;21095;-67
2022/06/17 11:55:06;;;;;;;4.53;3.15;;;;;;;;;;1712625;82;21049;-65
2022/06/17 11:57:34;;;;;;;6.75;3.27;;;;;;;;;;1710045;83;21065;-64
2022/06/17 12:00:03;;;;;;;5.12;3.33;;;;;;;;;;1708595;82;21109;-64
2022/06/17 12:02:31;;;;;;;5.10;3.27;;;;;;;;;;1707201;82;21504;-64
2022/06/17 12:05:07;;;;;;;6.33;3.50;;;;;;;;;;1709335;84;20962;-64
2022/06/17 12:07:38;;;;;;;5.50;3.33;;;;;;;;;;1707509;83;21545;-63
2022/06/17 12:10:24;;;;;;;5.97;3.50;;;;;;;;;;1709917;82;20997;-65
2022/06/17 12:12:52;;;;;;;35.43;27.73;;;;;;;;;;1711780;84;21093;-65
2022/06/17 12:15:29;;;;;;;33.45;28.30;;;;;;;;;;1711011;83;21101;-65
2022/06/17 12:17:59;;;;;;;16.30;13.68;;;;;;;;;;1705892;84;21600;-65
2022/06/17 12:20:39;;;;;;;38.17;29.18;;;;;;;;;;1710954;82;21437;-65
2022/06/17 12:23:13;;;;;;;10.50;6.87;;;;;;;;;;1694544;84;21018;-66
2022/06/17 12:25:44;;;;;;;6.97;4.47;;;;;;;;;;1709015;82;21060;-69
2022/06/17 12:28:12;;;;;;;7.33;4.45;;;;;;;;;;1712704;82;21041;-69
2022/06/17 12:30:44;;;;;;;6.05;4.00;;;;;;;;;;1724857;82;21578;-69
2022/06/17 12:33:13;;;;;;;7.55;4.20;;;;;;;;;;1732687;82;21064;-71
2022/06/17 12:35:41;;;;;;;6.58;3.80;;;;;;;;;;1710333;82;21484;-71
2022/06/17 12:38:08;;;;;;;8.88;4.75;;;;;;;;;;1693774;82;21024;-69
2022/06/17 12:40:40;;;;;;;7.28;4.42;;;;;;;;;;1709490;82;21306;-69
2022/06/17 12:43:10;;;;;;;6.25;4.70;;;;;;;;;;1715062;82;21081;-70
2022/06/17 12:45:38;;;;;;;8.75;5.05;;;;;;;;;;1713217;83;21071;-70
2022/06/17 12:48:15;;;;;;;6.62;5.10;;;;;;;;;;1720044;82;21104;-71
2022/06/17 12:53:47;;;;;;;9.30;5.53;;;;;;;;;;1716583;83;21090;-69
2022/06/17 12:56:18;;;;;;;8.50;4.60;;;;;;;;;;1716850;83;21076;-69
2022/06/17 12:58:46;;;;;;;7.90;4.55;;;;;;;;;;1716609;82;21091;-69
2022/06/17 13:01:13;;;;;;;9.18;4.60;;;;;;;;;;1716806;82;21119;-69
2022/06/17 13:03:54;;;;;;;8.93;4.22;;;;;;;;;;1717784;83;21438;-70
2022/06/17 13:06:23;;;;;;;8.43;5.00;;;;;;;;;;1715317;82;21540;-70
2022/06/17 13:08:51;;;;;;;6.55;3.90;;;;;;;;;;1713253;83;21024;-70
2022/06/17 13:11:19;;;;;;;9.48;3.65;;;;;;;;;;1719186;82;21079;-70
2022/06/17 13:14:02;;;;;;;5.42;3.50;;;;;;;;;;1720635;82;21090;-69
2022/06/17 13:16:30;;;;;;;8.18;4.20;;;;;;;;;;1715943;82;21521;-67
2022/06/17 13:19:00;;;;;;;4.58;3.72;;;;;;;;;;1718949;83;21051;-68
2022/06/17 13:21:40;;;;;;;6.45;3.60;;;;;;;;;;1717945;82;21055;-69
2022/06/17 13:24:26;;;;;;;5.78;4.17;;;;;;;;;;1714368;82;21524;-68
2022/06/17 13:26:56;;;;;;;6.08;4.25;;;;;;;;;;1719539;82;21524;-68
2022/06/17 13:29:24;;;;;;;8.78;3.83;;;;;;;;;;1717222;82;21068;-68
2022/06/17 13:31:52;;;;;;;6.80;3.17;;;;;;;;;;1718041;83;21012;-68
2022/06/17 13:34:21;;;;;;;4.35;2.95;;;;;;;;;;1717184;83;21069;-68
2022/06/17 13:36:58;;;;;;;3.60;2.55;;;;;;;;;;1716730;82;21065;-68
2022/06/17 13:39:26;;;;;;;12.05;8.15;;;;;;;;;;1714987;82;21532;-68
2022/06/17 13:42:00;;;;;;;12.30;6.30;;;;;;;;;;1717281;82;21057;-68
2022/06/17 13:44:45;;;;;;;13.95;9.45;;;;;;;;;;1716574;83;21008;-69
2022/06/17 13:47:24;;;;;;;15.78;9.03;;;;;;;;;;1715905;83;21041;-67
2022/06/17 13:49:53;;;;;;;5.28;3.20;;;;;;;;;;1716531;83;21005;-66
2022/06/17 13:52:24;;;;;;;7.50;3.05;;;;;;;;;;1715871;83;21084;-65
2022/06/17 13:54:55;;;;;;;4.72;2.85;;;;;;;;;;1716784;83;21056;-65
2022/06/17 13:57:23;;;;;;;4.20;2.98;;;;;;;;;;1715345;83;21032;-65
2022/06/17 13:59:54;;;;;;;5.85;3.27;;;;;;;;;;1712334;83;21035;-66
2022/06/17 14:02:24;;;;;;;6.17;3.00;;;;;;;;;;1718373;83;21548;-66
2022/06/17 14:05:11;;;;;;;6.30;4.05;;;;;;;;;;1717780;83;21087;-65
2022/06/17 14:07:55;;;;;;;5.70;3.15;;;;;;;;;;1716612;83;20957;-64
2022/06/17 14:10:41;;;;;;;5.10;2.77;;;;;;;;;;1713092;83;21093;-64
2022/06/17 14:13:16;;;;;;;7.03;3.20;;;;;;;;;;1716607;82;21013;-64
2022/06/17 14:15:45;;;;;;;3.72;2.70;;;;;;;;;;1720246;82;21072;-65
2022/06/17 14:18:17;;;;;;;3.98;2.72;;;;;;;;;;1717048;83;21553;-65
2022/06/17 14:20:45;;;;;;;4.33;2.80;;;;;;;;;;1716556;82;21553;-67
2022/06/17 14:23:13;;;;;;;9.40;2.92;;;;;;;;;;1717385;82;21017;-67
2022/06/17 14:25:44;;;;;;;4.15;2.55;;;;;;;;;;1718809;82;20996;-66
2022/06/17 14:28:29;;;;;;;5.33;2.92;;;;;;;;;;1661498;86;21144;-64
2022/06/17 14:31:09;;;;;;;6.03;3.35;;;;;;;;;;1715611;82;21051;-66
2022/06/17 14:33:37;;;;;;;5.33;3.40;;;;;;;;;;1715857;83;21339;-64
2022/06/17 14:36:05;;;;;;;5.67;3.10;;;;;;;;;;1713935;83;21024;-65
2022/06/17 14:38:33;;;;;;;5.03;3.00;;;;;;;;;;1719676;83;21504;-65
2022/06/17 14:44:02;;;;;;;10.55;3.25;;;;;;;;;;1719312;83;21071;-66
2022/06/17 14:46:29;;;;;;;7.97;3.10;;;;;;;;;;1691152;85;21063;-65
2022/06/17 14:49:14;;;;;;;5.15;3.02;;;;;;;;;;1663842;85;21016;-65
2022/06/17 14:51:42;;;;;;;4.33;2.92;;;;;;;;;;1697715;83;21015;-65
2022/06/17 14:54:10;;;;;;;4.75;3.52;;;;;;;;;;1686367;85;21086;-65
2022/06/17 14:56:42;;;;;;;5.85;3.58;;;;;;;;;;1719064;83;21032;-65
2022/06/17 14:59:13;;;;;;;5.00;3.02;;;;;;;;;;1719703;83;21083;-66
2022/06/17 15:01:45;;;;;;;5.22;3.40;;;;;;;;;;1719668;83;21079;-66
2022/06/17 15:04:16;;;;;;;7.50;3.72;;;;;;;;;;1713596;84;21593;-65
2022/06/17 15:06:47;;;;;;;5.00;3.10;;;;;;;;;;1714167;84;21540;-65
2022/06/17 15:09:15;;;;;;;6.08;3.55;;;;;;;;;;1715073;83;21567;-65
2022/06/17 15:11:42;;;;;;;6.67;3.20;;;;;;;;;;1720009;83;21551;-65
2022/06/17 15:14:16;;;;;;;5.60;3.25;;;;;;;;;;1691342;83;21008;-65